Time;durP1;ratioP1;P1;durP2;ratioP2;P2;SDS_P1;SDS_P2;PMS_P1;PMS_P2;Temp;Humidity;BMP_temperature;BMP_pressure;BME280_temperature;BME280_humidity;BME280_pressure;Samples;Min_cycle;Max_cycle;Signal;HPM_P1;HPM_P2
2021/11/07 00:00:31;;;;;;;9.82;4.60;;;16.80;64.70;;;;;;5084116;28;20047;-38
2021/11/07 00:03:11;;;;;;;7.82;4.47;;;16.80;64.80;;;;;;5064215;28;20025;-37
2021/11/07 00:06:40;;;;;;;11.00;4.75;;;16.80;64.80;;;;;;5064227;28;20053;-37
2021/11/07 00:11:06;;;;;;;11.75;4.10;;;16.70;64.70;;;;;;5064106;28;20029;-37
2021/11/07 00:13:32;;;;;;;9.20;4.28;;;16.70;64.70;;;;;;5064070;28;20021;-37
2021/11/07 00:16:04;;;;;;;8.20;3.70;;;16.70;64.90;;;;;;5081248;28;20052;-37
2021/11/07 00:18:43;;;;;;;8.70;3.60;;;16.80;65.30;;;;;;5083945;28;20044;-37
2021/11/07 00:21:24;;;;;;;8.65;3.80;;;16.80;65.30;;;;;;5084027;28;20036;-38
2021/11/07 00:24:10;;;;;;;8.65;3.90;;;16.80;65.30;;;;;;5084088;28;20033;-38
2021/11/07 00:29:19;;;;;;;7.05;3.42;;;16.80;65.20;;;;;;5091831;28;20107;-37
2021/11/07 00:31:52;;;;;;;7.18;3.83;;;16.80;65.20;;;;;;5104144;28;20111;-37
2021/11/07 00:37:05;;;;;;;6.82;3.53;;;16.80;65.10;;;;;;5103769;28;20027;-37
2021/11/07 00:42:22;;;;;;;6.43;3.25;;;16.70;65.00;;;;;;5103902;28;20024;-38
2021/11/07 00:45:03;;;;;;;4.82;2.78;;;16.70;65.20;;;;;;5103804;28;20047;-37
2021/11/07 00:47:39;;;;;;;5.32;2.97;;;16.70;65.70;;;;;;5103260;28;20111;-37
2021/11/07 00:50:10;;;;;;;7.60;3.03;;;16.80;65.60;;;;;;5103689;28;20031;-37
2021/11/07 00:55:12;;;;;;;4.68;2.70;;;16.80;65.50;;;;;;5103665;28;20025;-37
2021/11/07 00:58:33;;;;;;;5.13;2.72;;;16.80;65.50;;;;;;5102704;28;20024;-38
2021/11/07 01:03:02;;;;;;;6.88;3.40;;;16.80;65.50;;;;;;5103328;28;20044;-37
2021/11/07 01:05:30;;;;;;;5.68;2.63;;;16.70;65.40;;;;;;5103290;28;20036;-37
2021/11/07 01:07:56;;;;;;;3.72;2.70;;;16.70;65.50;;;;;;5102983;28;20050;-38
2021/11/07 01:10:23;;;;;;;4.43;2.60;;;16.70;65.40;;;;;;5103353;28;20108;-38
2021/11/07 01:12:50;;;;;;;5.13;2.70;;;16.70;65.50;;;;;;5103202;28;20024;-38
2021/11/07 01:15:16;;;;;;;;;;;16.70;65.60;;;;;;5102030;28;20155;-38
2021/11/07 01:17:43;;;;;;;4.93;2.17;;;16.70;66.20;;;;;;5103099;28;19958;-38
2021/11/07 01:20:09;;;;;;;3.95;2.15;;;16.80;66.00;;;;;;5101489;28;20024;-38
2021/11/07 01:22:53;;;;;;;5.32;2.40;;;16.80;65.80;;;;;;5103039;28;20136;-38
2021/11/07 01:25:20;;;;;;;4.38;2.17;;;16.80;65.80;;;;;;5102798;28;20404;-38
2021/11/07 01:27:47;;;;;;;3.73;2.20;;;16.80;65.70;;;;;;5102648;28;20052;-38
2021/11/07 01:30:18;;;;;;;4.53;1.83;;;16.70;65.70;;;;;;5102666;28;20275;-38
2021/11/07 01:32:48;;;;;;;4.38;2.10;;;16.70;65.80;;;;;;5102790;28;20028;-38
2021/11/07 01:35:36;;;;;;;2.90;1.98;;;16.70;65.70;;;;;;5102716;28;20382;-37
2021/11/07 01:40:36;;;;;;;4.63;2.10;;;16.70;65.70;;;;;;5102729;28;20039;-37
2021/11/07 01:43:03;;;;;;;3.03;2.08;;;16.60;65.60;;;;;;5102683;28;20500;-38
2021/11/07 01:45:35;;;;;;;4.43;2.17;;;16.60;65.70;;;;;;5098102;28;20036;-37
2021/11/07 01:50:40;;;;;;;3.42;1.85;;;16.80;66.30;;;;;;5102495;28;20051;-38
2021/11/07 01:53:26;;;;;;;3.70;1.95;;;16.80;66.10;;;;;;5102509;28;20031;-38
2021/11/07 01:55:52;;;;;;;3.72;1.65;;;16.80;66.00;;;;;;5102375;28;20035;-38
2021/11/07 01:58:19;;;;;;;3.80;2.15;;;16.80;66.00;;;;;;5102362;28;20032;-38
2021/11/07 02:00:46;;;;;;;3.63;1.83;;;16.80;66.10;;;;;;5102332;28;20023;-38
2021/11/07 02:03:12;;;;;;;2.50;1.80;;;16.70;65.90;;;;;;5102527;28;20028;-37
2021/11/07 02:05:39;;;;;;;2.90;1.70;;;16.70;66.00;;;;;;5102211;28;20028;-37
2021/11/07 02:08:06;;;;;;;4.77;1.97;;;16.70;66.00;;;;;;5102180;28;20063;-38
2021/11/07 02:10:33;;;;;;;2.95;2.00;;;16.70;66.00;;;;;;5100852;28;20028;-38
2021/11/07 02:13:00;;;;;;;2.97;1.60;;;16.60;65.90;;;;;;5102462;28;20059;-38
2021/11/07 02:15:26;;;;;;;2.72;1.70;;;16.70;66.30;;;;;;5089039;28;20719;-38
2021/11/07 02:17:52;;;;;;;3.08;1.60;;;16.70;66.50;;;;;;5081904;28;20044;-38
2021/11/07 02:20:30;;;;;;;3.10;1.88;;;16.80;66.40;;;;;;5081508;28;20053;-38
2021/11/07 02:22:57;;;;;;;2.28;1.35;;;16.80;66.10;;;;;;5081822;28;20028;-37
2021/11/07 02:25:23;;;;;;;3.10;1.80;;;16.80;66.10;;;;;;5081775;28;20032;-38
2021/11/07 02:27:50;;;;;;;2.80;1.43;;;16.70;66.00;;;;;;5081648;28;20477;-38
2021/11/07 02:30:16;;;;;;;3.05;1.48;;;16.70;66.10;;;;;;5064993;28;20112;-37
2021/11/07 02:32:44;;;;;;;2.08;1.40;;;16.70;66.10;;;;;;5085908;28;20028;-38
2021/11/07 02:35:11;;;;;;;2.80;1.55;;;16.70;66.10;;;;;;5085672;28;20044;-38
2021/11/07 02:37:37;;;;;;;2.08;1.42;;;16.70;66.30;;;;;;5076379;28;20040;-38
2021/11/07 02:40:06;;;;;;;1.80;1.30;;;16.80;66.70;;;;;;5085687;28;20040;-38
2021/11/07 02:42:33;;;;;;;2.22;1.55;;;16.80;66.60;;;;;;5085882;28;20020;-38
2021/11/07 02:45:00;;;;;;;2.65;1.70;;;16.80;66.30;;;;;;5085420;28;20033;-37
2021/11/07 02:47:27;;;;;;;2.40;1.70;;;16.80;66.30;;;;;;5085803;28;20092;-38
2021/11/07 02:49:53;;;;;;;2.00;1.30;;;16.80;66.20;;;;;;5085378;28;20041;-37
2021/11/07 02:52:19;;;;;;;2.47;1.80;;;16.70;66.20;;;;;;5084903;28;20416;-37
2021/11/07 02:54:45;;;;;;;3.72;1.50;;;16.70;66.30;;;;;;5085511;28;20028;-38
2021/11/07 02:57:13;;;;;;;2.45;1.67;;;16.70;66.30;;;;;;5085489;28;20024;-38
2021/11/07 02:59:41;;;;;;;1.92;1.40;;;16.70;66.30;;;;;;5085149;28;20024;-37
2021/11/07 03:02:09;;;;;;;2.38;1.50;;;16.70;66.50;;;;;;5085212;28;20729;-38
2021/11/07 03:04:35;;;;;;;2.03;1.30;;;16.80;66.80;;;;;;5085380;28;20043;-38
2021/11/07 03:07:01;;;;;;;2.15;1.50;;;16.80;66.60;;;;;;5084883;28;20168;-38
2021/11/07 03:09:33;;;;;;;3.50;1.58;;;16.80;66.30;;;;;;5085178;28;20021;-38
2021/11/07 03:12:00;;;;;;;2.50;1.50;;;16.80;66.40;;;;;;5085205;28;20040;-38
2021/11/07 03:14:29;;;;;;;1.73;1.30;;;16.70;66.30;;;;;;5084937;28;20059;-38
2021/11/07 03:16:56;;;;;;;2.15;1.60;;;16.70;66.40;;;;;;5085127;28;20029;-38
2021/11/07 03:19:23;;;;;;;3.10;1.52;;;16.70;66.40;;;;;;5067180;28;20683;-38
2021/11/07 03:21:50;;;;;;;2.80;1.55;;;16.70;66.40;;;;;;5084449;28;20028;-38
2021/11/07 03:24:17;;;;;;;2.15;1.35;;;16.70;66.50;;;;;;5084929;28;20028;-38
2021/11/07 03:26:43;;;;;;;1.70;1.30;;;16.70;66.80;;;;;;5084639;28;20413;-38
2021/11/07 03:29:10;;;;;;;2.28;1.40;;;16.80;66.90;;;;;;5084994;28;20124;-38
2021/11/07 03:31:52;;;;;;;2.10;1.45;;;16.80;66.70;;;;;;5084367;28;20032;-38
2021/11/07 03:34:31;;;;;;;2.15;1.20;;;16.80;66.40;;;;;;5084793;28;20029;-38
2021/11/07 03:36:59;;;;;;;2.50;1.50;;;16.80;66.50;;;;;;5084280;28;20028;-38
2021/11/07 03:39:29;;;;;;;1.95;1.20;;;16.80;66.60;;;;;;5084509;28;20036;-37
2021/11/07 03:41:56;;;;;;;2.42;1.60;;;16.70;66.50;;;;;;5061579;28;20025;-38
2021/11/07 03:44:22;;;;;;;2.50;1.60;;;16.70;66.50;;;;;;5063104;28;20037;-38
2021/11/07 03:46:50;;;;;;;2.20;1.52;;;16.70;66.50;;;;;;5082471;28;20125;-37
2021/11/07 03:49:17;;;;;;;2.45;1.60;;;16.70;66.50;;;;;;5066364;28;20025;-38
2021/11/07 03:51:44;;;;;;;2.15;1.52;;;16.70;66.60;;;;;;5049613;28;20035;-38
2021/11/07 03:54:11;;;;;;;3.05;1.13;;;16.70;66.80;;;;;;5084506;28;20044;-38
2021/11/07 03:56:37;;;;;;;2.40;1.45;;;16.80;67.00;;;;;;5084336;28;20028;-38
2021/11/07 03:59:03;;;;;;;1.83;1.27;;;16.80;66.90;;;;;;5084461;28;20082;-38
2021/11/07 04:01:29;;;;;;;2.40;1.83;;;16.80;66.60;;;;;;5065972;28;20021;-38
2021/11/07 04:03:55;;;;;;;1.33;1.23;;;16.80;66.60;;;;;;5084422;28;20032;-38
2021/11/07 04:06:22;;;;;;;2.35;1.30;;;16.80;66.60;;;;;;5084000;28;20044;-38
2021/11/07 04:08:48;;;;;;;2.78;1.60;;;16.70;66.60;;;;;;5065856;28;20051;-37
2021/11/07 04:11:14;;;;;;;2.17;1.38;;;16.70;66.60;;;;;;5083904;28;20041;-38
2021/11/07 04:13:41;;;;;;;1.47;1.20;;;16.70;66.60;;;;;;5083985;28;20029;-38
2021/11/07 04:16:10;;;;;;;1.30;1.10;;;16.70;66.60;;;;;;5102506;28;20048;-38
2021/11/07 04:18:37;;;;;;;2.30;1.60;;;16.70;67.00;;;;;;5102883;28;20107;-38
2021/11/07 04:21:04;;;;;;;2.65;1.70;;;16.80;67.00;;;;;;5103932;28;20070;-38
2021/11/07 04:23:30;;;;;;;2.73;1.70;;;16.80;66.80;;;;;;5104224;28;20401;-37
2021/11/07 04:25:58;;;;;;;2.40;1.48;;;16.80;66.70;;;;;;5103898;28;20484;-37
2021/11/07 04:28:25;;;;;;;2.70;1.70;;;16.70;66.70;;;;;;5104057;28;20488;-38
2021/11/07 04:30:52;;;;;;;2.78;1.50;;;16.70;66.70;;;;;;5103908;28;20497;-37
2021/11/07 04:33:18;;;;;;;3.42;1.65;;;16.70;66.70;;;;;;5104003;28;20118;-38
2021/11/07 04:35:44;;;;;;;3.67;1.80;;;16.70;66.70;;;;;;5104041;28;20114;-38
2021/11/07 04:38:10;;;;;;;2.78;1.70;;;16.70;66.70;;;;;;5103434;28;20035;-38
2021/11/07 04:40:36;;;;;;;3.42;1.80;;;16.70;67.10;;;;;;5103876;28;20027;-38
2021/11/07 04:43:02;;;;;;;2.30;1.63;;;16.80;67.10;;;;;;5090445;28;20031;-38
2021/11/07 04:45:29;;;;;;;3.78;1.95;;;16.80;66.90;;;;;;5083737;28;20041;-38
2021/11/07 04:47:55;;;;;;;3.17;2.00;;;16.80;66.80;;;;;;5087685;28;20031;-38
2021/11/07 04:50:21;;;;;;;3.43;2.10;;;16.70;66.70;;;;;;5103513;28;20021;-38
2021/11/07 04:52:48;;;;;;;2.80;1.92;;;16.70;66.90;;;;;;5103265;28;20272;-38
2021/11/07 04:55:14;;;;;;;3.37;2.00;;;16.70;66.80;;;;;;5085340;28;20028;-38
2021/11/07 04:57:43;;;;;;;2.33;1.53;;;16.60;66.80;;;;;;5103706;28;20031;-38
2021/11/07 05:00:16;;;;;;;2.65;1.83;;;16.60;66.80;;;;;;5103231;28;20295;-38
2021/11/07 05:02:42;;;;;;;2.95;2.22;;;16.60;67.00;;;;;;5103526;28;20060;-38
2021/11/07 05:05:09;;;;;;;2.78;2.00;;;16.70;67.10;;;;;;5103502;28;20040;-38
2021/11/07 05:07:35;;;;;;;3.33;2.30;;;16.70;67.00;;;;;;5102622;28;20064;-37
2021/11/07 05:10:01;;;;;;;3.13;2.15;;;16.70;66.80;;;;;;5103302;28;20039;-38
2021/11/07 05:12:28;;;;;;;2.78;2.03;;;16.70;66.80;;;;;;5103223;28;20029;-38
2021/11/07 05:14:55;;;;;;;2.78;2.00;;;16.70;66.90;;;;;;5103067;28;20044;-38
2021/11/07 05:17:21;;;;;;;4.03;1.90;;;16.60;66.80;;;;;;5103293;28;20055;-38
2021/11/07 05:19:48;;;;;;;3.78;2.53;;;16.60;66.90;;;;;;5102934;28;20105;-38
2021/11/07 05:22:14;;;;;;;2.42;1.67;;;16.60;66.90;;;;;;5103168;28;20032;-38
2021/11/07 05:24:40;;;;;;;3.35;1.90;;;16.60;67.00;;;;;;5102945;28;20024;-38
2021/11/07 05:27:07;;;;;;;3.17;1.88;;;16.60;67.20;;;;;;5103086;28;20091;-38
2021/11/07 05:29:33;;;;;;;3.17;1.90;;;16.70;67.30;;;;;;5102894;28;20420;-38
2021/11/07 05:32:00;;;;;;;3.47;2.20;;;16.70;67.00;;;;;;5102943;28;20058;-38
2021/11/07 05:34:27;;;;;;;2.88;1.92;;;16.70;66.90;;;;;;5103031;28;20035;-38
2021/11/07 05:36:53;;;;;;;3.08;2.05;;;16.70;66.90;;;;;;5102568;28;20043;-38
2021/11/07 05:39:20;;;;;;;2.90;2.22;;;16.60;66.90;;;;;;5102647;28;20496;-39
2021/11/07 05:41:46;;;;;;;3.40;2.07;;;16.60;66.90;;;;;;5102649;28;20036;-38
2021/11/07 05:44:12;;;;;;;3.50;2.35;;;16.60;66.90;;;;;;5094073;28;20024;-38
2021/11/07 05:46:38;;;;;;;3.83;2.30;;;16.50;67.00;;;;;;5102853;28;20092;-38
2021/11/07 05:49:04;;;;;;;3.65;2.15;;;16.60;67.20;;;;;;5102659;28;20024;-38
2021/11/07 05:51:31;;;;;;;3.57;2.23;;;16.70;67.20;;;;;;5102521;28;20050;-38
2021/11/07 05:53:57;;;;;;;3.28;2.17;;;16.70;67.00;;;;;;5102562;28;20028;-38
2021/11/07 05:56:23;;;;;;;2.60;2.10;;;16.70;67.00;;;;;;5102657;28;20024;-38
2021/11/07 05:58:50;;;;;;;2.90;1.92;;;16.60;66.90;;;;;;5102516;28;20043;-38
2021/11/07 06:01:16;;;;;;;2.55;2.10;;;16.60;66.90;;;;;;5102243;28;20047;-38
2021/11/07 06:03:42;;;;;;;3.75;2.50;;;16.60;66.90;;;;;;5102670;28;20110;-38
2021/11/07 06:06:08;;;;;;;2.47;1.95;;;16.50;67.00;;;;;;5101759;28;20046;-37
2021/11/07 06:08:34;;;;;;;4.32;2.13;;;16.60;67.10;;;;;;5102112;28;20118;-38
2021/11/07 06:11:00;;;;;;;2.95;2.33;;;16.70;67.30;;;;;;5102396;28;20028;-38
2021/11/07 06:13:26;;;;;;;3.58;2.53;;;16.70;67.10;;;;;;5102434;28;20024;-38
2021/11/07 06:15:53;;;;;;;3.38;2.00;;;16.70;66.90;;;;;;5102395;28;20066;-38
2021/11/07 06:18:19;;;;;;;2.78;2.13;;;16.60;66.80;;;;;;5102393;28;20065;-38
2021/11/07 06:20:45;;;;;;;3.28;2.05;;;16.60;66.90;;;;;;5102262;28;20468;-38
2021/11/07 06:23:11;;;;;;;3.17;2.13;;;16.60;66.90;;;;;;5102346;28;20493;-37
2021/11/07 06:25:38;;;;;;;3.25;2.30;;;16.50;66.90;;;;;;5102114;28;20040;-38
2021/11/07 06:28:05;;;;;;;3.10;1.90;;;16.50;67.10;;;;;;5102395;28;20050;-38
2021/11/07 06:30:31;;;;;;;;;;;16.60;67.30;;;;;;5102609;28;20099;-38
2021/11/07 06:32:57;;;;;;;3.15;2.20;;;16.70;67.30;;;;;;5102248;28;19912;-38
2021/11/07 06:35:23;;;;;;;2.95;2.10;;;16.70;67.00;;;;;;5102286;28;20024;-38
2021/11/07 06:37:50;;;;;;;2.80;1.98;;;16.70;66.90;;;;;;5102001;28;20059;-38
2021/11/07 06:40:16;;;;;;;1.85;1.60;;;16.60;66.90;;;;;;5101914;28;20050;-38
2021/11/07 06:42:42;;;;;;;3.28;2.30;;;16.60;66.90;;;;;;5102147;28;20028;-38
2021/11/07 06:45:10;;;;;;;2.90;1.70;;;16.50;67.00;;;;;;5085245;28;20029;-38
2021/11/07 06:47:36;;;;;;;2.22;1.65;;;16.50;67.10;;;;;;5082143;28;20021;-38
2021/11/07 06:50:03;;;;;;;2.70;2.00;;;16.60;67.40;;;;;;5082057;28;20035;-38
2021/11/07 06:52:29;;;;;;;2.35;1.90;;;16.70;67.30;;;;;;5081881;28;20025;-38
2021/11/07 06:54:56;;;;;;;2.15;1.70;;;16.70;67.10;;;;;;5086688;28;20127;-38
2021/11/07 06:57:22;;;;;;;2.40;1.80;;;16.70;66.90;;;;;;5102048;28;20024;-38
2021/11/07 06:59:48;;;;;;;2.78;1.90;;;16.70;67.00;;;;;;5102143;28;20028;-38
2021/11/07 07:02:14;;;;;;;2.75;2.22;;;16.60;66.90;;;;;;5101905;28;20032;-38
2021/11/07 07:04:40;;;;;;;1.70;1.30;;;16.60;67.00;;;;;;5101921;28;20028;-38
2021/11/07 07:07:07;;;;;;;2.83;2.03;;;16.50;67.00;;;;;;5101780;28;20127;-38
2021/11/07 07:09:43;;;;;;;2.00;1.80;;;16.50;67.20;;;;;;5102011;28;20035;-38
2021/11/07 07:12:16;;;;;;;2.63;1.85;;;16.60;67.40;;;;;;5101836;28;20024;-38
2021/11/07 07:14:52;;;;;;;1.92;1.70;;;16.70;67.30;;;;;;5101855;28;20044;-38
2021/11/07 07:17:29;;;;;;;2.97;1.90;;;16.70;67.00;;;;;;5105254;28;20039;-38
2021/11/07 07:28:18;;;;;;;3.25;1.85;;;16.50;67.00;;;;;;5105572;28;20088;-38
2021/11/07 07:34:06;;;;;;;2.47;1.73;;;16.70;67.40;;;;;;5105516;28;20066;-38
2021/11/07 07:36:21;;;;;;;2.42;1.73;;;16.70;67.10;;;;;;5102204;28;20063;-38
2021/11/07 07:38:47;;;;;;;2.40;1.80;;;16.70;67.00;;;;;;5105012;28;20028;-38
2021/11/07 07:41:13;;;;;;;3.50;2.05;;;16.60;66.90;;;;;;5104949;28;20032;-38
2021/11/07 07:43:40;;;;;;;2.58;1.70;;;16.60;67.10;;;;;;5105263;28;20028;-38
2021/11/07 07:46:11;;;;;;;2.10;1.80;;;16.60;67.00;;;;;;5105347;28;20032;-38
2021/11/07 07:48:41;;;;;;;2.70;2.00;;;16.50;67.00;;;;;;5104956;28;20556;-38
2021/11/07 07:51:08;;;;;;;2.47;1.85;;;16.60;67.20;;;;;;5104969;28;20036;-38
2021/11/07 07:53:35;;;;;;;2.70;2.10;;;16.70;67.30;;;;;;5104978;28;20028;-37
2021/11/07 07:56:01;;;;;;;2.90;2.00;;;16.70;67.10;;;;;;5104898;28;20047;-38
2021/11/07 07:58:27;;;;;;;2.25;2.00;;;16.70;66.90;;;;;;5105047;28;20763;-38
2021/11/07 08:00:54;;;;;;;2.20;1.80;;;16.60;66.90;;;;;;5104954;28;20127;-38
2021/11/07 08:03:21;;;;;;;2.55;2.00;;;16.60;66.90;;;;;;5104595;28;20032;-38
2021/11/07 08:05:47;;;;;;;1.83;1.73;;;16.50;67.00;;;;;;5104898;28;20040;-38
2021/11/07 08:08:13;;;;;;;2.38;2.10;;;16.50;67.00;;;;;;5104601;28;20039;-38
2021/11/07 08:10:39;;;;;;;2.60;2.10;;;16.50;67.20;;;;;;5104619;28;20032;-38
2021/11/07 08:13:06;;;;;;;3.08;2.17;;;16.60;68.10;;;;;;5104634;28;20024;-38
2021/11/07 08:15:32;;;;;;;3.50;2.28;;;16.60;67.10;;;;;;5104602;28;20078;-38
2021/11/07 08:17:59;;;;;;;3.20;2.20;;;16.70;67.00;;;;;;5104662;28;20145;-38
2021/11/07 08:20:25;;;;;;;2.55;2.03;;;16.60;66.90;;;;;;5103551;28;20016;-38
2021/11/07 08:22:51;;;;;;;2.58;1.85;;;16.60;66.90;;;;;;5104231;28;20081;-38
2021/11/07 08:25:22;;;;;;;3.27;2.07;;;16.50;67.00;;;;;;5104368;28;20047;-38
2021/11/07 08:27:54;;;;;;;2.20;1.95;;;16.50;66.90;;;;;;5103668;28;20260;-38
2021/11/07 08:30:23;;;;;;;2.58;2.00;;;16.50;67.20;;;;;;5104420;28;20039;-38
2021/11/07 08:32:49;;;;;;;3.00;2.00;;;16.60;67.20;;;;;;5104062;28;20059;-38
2021/11/07 08:35:16;;;;;;;2.65;1.90;;;16.70;67.00;;;;;;5104366;28;20054;-38
2021/11/07 08:37:48;;;;;;;2.03;1.83;;;16.60;66.90;;;;;;5103998;28;20031;-38
2021/11/07 08:40:26;;;;;;;3.13;2.00;;;16.60;66.90;;;;;;5101136;28;20027;-38
2021/11/07 08:43:00;;;;;;;2.70;2.00;;;16.50;66.90;;;;;;5104107;28;20024;-38
2021/11/07 09:02:06;;;;;;;2.58;2.10;;;16.60;67.00;;;;;;5095570;28;20039;-38
2021/11/07 09:04:41;;;;;;;2.15;1.90;;;16.50;67.00;;;;;;5103769;28;20101;-38
2021/11/07 09:07:25;;;;;;;2.95;1.88;;;16.50;67.10;;;;;;5103370;28;20032;-38
2021/11/07 09:09:59;;;;;;;2.78;1.85;;;16.60;67.40;;;;;;5103501;28;20036;-38
2021/11/07 09:12:26;;;;;;;2.35;1.75;;;16.70;67.10;;;;;;5103677;28;20456;-38
2021/11/07 09:14:53;;;;;;;2.28;2.08;;;16.70;66.90;;;;;;5102132;28;20051;-38
2021/11/07 09:17:19;;;;;;;;;;;16.60;66.90;;;;;;5102728;28;20028;-38
2021/11/07 09:19:48;;;;;;;2.13;1.90;;;16.60;66.90;;;;;;5103490;28;19908;-38
2021/11/07 09:22:32;;;;;;;2.80;2.00;;;16.50;66.90;;;;;;5103282;28;20100;-38
2021/11/07 09:25:04;;;;;;;2.15;1.77;;;16.50;67.00;;;;;;5103323;28;20036;-38
2021/11/07 09:27:53;;;;;;;2.50;2.00;;;16.50;67.10;;;;;;5103301;28;20032;-38
2021/11/07 09:30:28;;;;;;;;;;;16.60;67.40;;;;;;5103750;28;20057;-39
2021/11/07 09:33:08;;;;;;;2.47;1.73;;;16.70;67.00;;;;;;5083185;28;19908;-38
2021/11/07 09:38:29;;;;;;;3.67;1.98;;;16.60;66.90;;;;;;5097845;28;20031;-38
2021/11/07 09:46:20;;;;;;;2.58;1.90;;;16.50;67.00;;;;;;5101891;28;20061;-38
2021/11/07 09:48:53;;;;;;;2.97;2.13;;;16.60;67.20;;;;;;5103099;28;20032;-38
2021/11/07 09:51:22;;;;;;;2.85;1.92;;;16.70;67.20;;;;;;5097072;28;20059;-38
2021/11/07 09:53:50;;;;;;;3.05;2.03;;;16.70;66.90;;;;;;5102802;28;20016;-38
2021/11/07 09:56:16;;;;;;;2.67;1.90;;;16.60;66.80;;;;;;5102867;28;20027;-38
2021/11/07 09:58:45;;;;;;;2.67;1.92;;;16.60;66.90;;;;;;5102879;28;20032;-38
2021/11/07 10:01:12;;;;;;;2.97;2.00;;;16.50;66.90;;;;;;5102971;28;20028;-38
2021/11/07 10:03:43;;;;;;;2.30;2.00;;;16.50;66.90;;;;;;5102664;28;20032;-38
2021/11/07 10:06:26;;;;;;;1.95;1.70;;;16.50;67.00;;;;;;5102910;28;20393;-38
2021/11/07 10:08:53;;;;;;;2.17;1.85;;;16.60;67.20;;;;;;5102320;28;20039;-38
2021/11/07 10:11:19;;;;;;;2.00;1.80;;;16.70;67.20;;;;;;5102808;28;20037;-38
2021/11/07 10:14:12;;;;;;;2.23;1.93;;;16.60;66.80;;;;;;5102624;28;20111;-38
2021/11/07 10:16:49;;;;;;;2.50;1.88;;;16.60;66.80;;;;;;5103016;28;20044;-38
2021/11/07 10:19:28;;;;;;;2.50;1.92;;;16.60;66.80;;;;;;5102613;28;20024;-38
2021/11/07 10:21:55;;;;;;;2.63;2.10;;;16.50;66.90;;;;;;5102620;28;20032;-38
2021/11/07 10:24:25;;;;;;;2.00;1.80;;;16.50;66.90;;;;;;5102505;28;20020;-38
2021/11/07 10:26:59;;;;;;;2.45;1.98;;;16.50;67.10;;;;;;5102461;28;20405;-39
2021/11/07 10:29:36;;;;;;;2.85;1.80;;;16.60;67.10;;;;;;5102627;28;20032;-38
2021/11/07 10:32:12;;;;;;;2.10;1.90;;;16.70;66.90;;;;;;5102458;28;20024;-38
2021/11/07 10:37:58;;;;;;;2.70;2.00;;;16.60;66.80;;;;;;5102158;28;20053;-38
2021/11/07 10:53:14;;;;;;;2.20;1.83;;;16.60;66.70;;;;;;5106299;28;20027;-38
2021/11/07 10:55:49;;;;;;;2.40;2.03;;;16.60;66.70;;;;;;5106084;28;20077;-38
2021/11/07 10:58:16;;;;;;;2.42;1.90;;;16.50;66.70;;;;;;5106377;28;20496;-38
2021/11/07 11:00:46;;;;;;;2.55;1.90;;;16.50;66.90;;;;;;5106388;28;20092;-38
2021/11/07 11:03:16;;;;;;;2.25;1.90;;;16.50;66.90;;;;;;5106359;28;20028;-38
2021/11/07 11:05:49;;;;;;;2.67;2.20;;;16.60;67.00;;;;;;5105768;28;20404;-38
2021/11/07 11:08:22;;;;;;;2.03;1.67;;;16.60;67.60;;;;;;5105941;28;20030;-38
2021/11/07 11:11:08;;;;;;;2.50;2.05;;;16.70;66.70;;;;;;5106084;28;20030;-38
2021/11/07 11:16:28;;;;;;;2.47;2.05;;;16.50;66.70;;;;;;5105756;28;20131;-38
2021/11/07 11:27:37;;;;;;;1.95;1.58;;;16.70;66.80;;;;;;5105643;28;20062;-38
2021/11/07 11:40:35;;;;;;;2.45;2.08;;;16.50;66.80;;;;;;5105630;28;20046;-38
2021/11/07 11:43:11;;;;;;;2.28;1.90;;;16.50;66.90;;;;;;5089532;28;20059;-38
2021/11/07 11:45:41;;;;;;;1.90;1.70;;;16.60;67.00;;;;;;5104083;28;20055;-38
2021/11/07 11:51:36;;;;;;;2.20;1.92;;;16.60;66.60;;;;;;5080993;28;20051;-38
2021/11/07 11:54:31;;;;;;;2.47;2.10;;;16.60;66.70;;;;;;5105082;28;20032;-38
2021/11/07 11:57:09;;;;;;;3.90;2.08;;;16.50;66.80;;;;;;5104972;28;20034;-38
2021/11/07 12:00:01;;;;;;;2.15;1.80;;;16.50;66.90;;;;;;5105180;28;20027;-38
2021/11/07 12:02:35;;;;;;;2.20;1.90;;;16.50;67.00;;;;;;5103600;28;20028;-38
2021/11/07 12:05:15;;;;;;;2.20;1.92;;;16.70;67.10;;;;;;5105008;28;20043;-38
2021/11/07 12:07:57;;;;;;;2.28;1.73;;;16.60;66.70;;;;;;5104504;28;20102;-38
2021/11/07 12:10:30;;;;;;;2.10;1.85;;;16.60;66.60;;;;;;5104818;28;20032;-38
2021/11/07 12:13:02;;;;;;;2.25;1.90;;;16.50;66.60;;;;;;5104740;28;20036;-38
2021/11/07 12:15:44;;;;;;;2.53;1.92;;;16.50;66.80;;;;;;5087186;28;20897;-38
2021/11/07 12:18:11;;;;;;;2.30;1.90;;;16.50;66.90;;;;;;5104546;28;20101;-38
2021/11/07 12:20:39;;;;;;;2.33;1.80;;;16.60;67.10;;;;;;5086305;28;20024;-39
2021/11/07 12:23:30;;;;;;;2.30;1.83;;;16.60;66.90;;;;;;5104420;28;20020;-38
2021/11/07 12:25:57;;;;;;;2.20;1.55;;;16.60;66.70;;;;;;5104505;28;20028;-38
2021/11/07 12:28:45;;;;;;;2.92;2.10;;;16.60;66.60;;;;;;5104142;28;20607;-38
2021/11/07 12:31:11;;;;;;;2.83;2.08;;;16.60;66.70;;;;;;5104334;28;20039;-38
2021/11/07 12:33:54;;;;;;;3.33;2.50;;;16.50;66.70;;;;;;5104520;28;20036;-38
2021/11/07 12:36:35;;;;;;;2.00;1.70;;;16.50;66.80;;;;;;5104470;28;20036;-38
2021/11/07 12:42:14;;;;;;;2.03;1.80;;;16.70;67.00;;;;;;5061468;28;20040;-38
2021/11/07 12:44:46;;;;;;;2.50;1.80;;;16.60;66.70;;;;;;5061111;28;20041;-38
2021/11/07 12:47:13;;;;;;;2.45;1.90;;;16.60;66.70;;;;;;5060867;28;20571;-38
2021/11/07 12:49:40;;;;;;;2.42;1.85;;;16.50;66.70;;;;;;5044216;28;20041;-37
2021/11/07 12:52:06;;;;;;;2.83;1.75;;;16.50;66.70;;;;;;5056360;28;20033;-38
2021/11/07 12:54:40;;;;;;;2.08;1.88;;;16.50;66.90;;;;;;5061100;28;20037;-38
2021/11/07 12:57:09;;;;;;;2.42;1.83;;;16.60;67.10;;;;;;5060648;28;20060;-42
2021/11/07 12:59:37;;;;;;;1.98;1.63;;;16.60;67.60;;;;;;5060649;28;20024;-38
2021/11/07 13:02:22;;;;;;;1.95;1.52;;;16.60;66.60;;;;;;5060700;28;20037;-38
2021/11/07 13:05:22;;;;;;;2.22;1.70;;;16.60;66.60;;;;;;5060840;28;20559;-38
2021/11/07 13:08:04;;;;;;;2.47;2.00;;;16.50;66.70;;;;;;5056695;28;20150;-37
2021/11/07 13:11:15;;;;;;;2.90;1.50;;;16.50;66.70;;;;;;5060484;28;20041;-38
2021/11/07 13:18:52;;;;;;;2.33;1.67;;;16.60;66.70;;;;;;5103348;28;20032;-38
2021/11/07 13:29:27;;;;;;;2.80;1.77;;;16.50;66.80;;;;;;5103176;28;20051;-38
2021/11/07 13:35:21;;;;;;;1.67;1.40;;;16.70;66.90;;;;;;5103249;28;20529;-38
2021/11/07 13:37:51;;;;;;;1.77;1.67;;;16.60;66.60;;;;;;5091320;28;20040;-38
2021/11/07 13:40:26;;;;;;;2.13;1.80;;;16.60;66.70;;;;;;5103206;28;20036;-38
2021/11/07 13:42:52;;;;;;;2.13;1.77;;;16.50;66.60;;;;;;5103106;28;20154;-38
2021/11/07 13:45:26;;;;;;;2.20;1.67;;;16.50;66.70;;;;;;5101737;28;20032;-38
2021/11/07 13:47:52;;;;;;;2.60;1.63;;;16.50;66.80;;;;;;5103015;28;20028;-39
2021/11/07 13:50:21;;;;;;;1.73;1.58;;;16.60;67.00;;;;;;5102751;28;20469;-38
2021/11/07 13:52:51;;;;;;;1.67;1.42;;;16.60;66.90;;;;;;5102922;28;20028;-38
2021/11/07 13:55:27;;;;;;;2.03;1.60;;;16.70;66.70;;;;;;5102898;28;20039;-38
2021/11/07 13:57:54;;;;;;;2.28;1.42;;;16.60;66.60;;;;;;5102761;28;20028;-38
2021/11/07 14:00:25;;;;;;;2.30;1.67;;;16.60;66.60;;;;;;5102740;28;20024;-38
2021/11/07 14:02:53;;;;;;;1.67;1.42;;;16.50;66.70;;;;;;5102852;28;20024;-38
2021/11/07 14:05:20;;;;;;;2.00;1.70;;;16.50;66.70;;;;;;5102786;28;20043;-38
2021/11/07 14:08:05;;;;;;;1.23;1.07;;;16.50;66.80;;;;;;5100668;28;20128;-38
2021/11/07 14:10:33;;;;;;;1.92;1.58;;;16.60;67.00;;;;;;5102522;28;20485;-38
2021/11/07 14:13:01;;;;;;;2.30;1.48;;;16.70;66.90;;;;;;5102627;28;20032;-38
2021/11/07 14:15:35;;;;;;;1.60;1.50;;;16.70;66.70;;;;;;5101091;28;20796;-38
2021/11/07 14:18:19;;;;;;;2.65;1.40;;;16.60;66.60;;;;;;5101322;28;20024;-38
2021/11/07 14:20:53;;;;;;;1.33;1.20;;;16.50;66.60;;;;;;5102622;28;20114;-38
2021/11/07 14:23:34;;;;;;;1.35;1.20;;;16.50;66.70;;;;;;5102375;28;20028;-38
2021/11/07 14:26:09;;;;;;;1.70;1.42;;;16.50;66.90;;;;;;5105511;28;20426;-38
2021/11/07 14:28:57;;;;;;;2.38;1.40;;;16.60;67.10;;;;;;5109076;28;20035;-38
2021/11/07 14:31:28;;;;;;;1.75;1.55;;;16.70;66.90;;;;;;5109389;28;20051;-38
2021/11/07 14:34:14;;;;;;;2.67;1.45;;;16.70;66.70;;;;;;5108072;28;20031;-38
2021/11/07 14:37:02;;;;;;;1.35;1.15;;;16.60;66.60;;;;;;5109111;28;20043;-38
2021/11/07 14:42:12;;;;;;;1.75;1.40;;;16.50;66.70;;;;;;5088806;28;20431;-38
2021/11/07 14:44:43;;;;;;;2.22;1.55;;;16.50;66.80;;;;;;5088798;28;20041;-38
2021/11/07 14:47:13;;;;;;;1.67;1.38;;;16.60;67.00;;;;;;5088978;28;20031;-38
2021/11/07 14:49:56;;;;;;;1.90;1.27;;;16.70;67.00;;;;;;5087290;28;20716;-38
2021/11/07 14:52:38;;;;;;;1.25;1.13;;;16.70;66.80;;;;;;5102607;28;20145;-38
2021/11/07 14:55:29;;;;;;;1.38;1.23;;;16.60;66.70;;;;;;5108844;28;20034;-38
2021/11/07 15:00:58;;;;;;;1.60;1.25;;;16.60;66.80;;;;;;5108937;28;20070;-38
2021/11/07 15:03:31;;;;;;;1.30;1.13;;;16.50;66.70;;;;;;5108774;28;20023;-38
2021/11/07 15:06:56;;;;;;;1.85;1.38;;;16.50;66.80;;;;;;5108832;28;20040;-38
2021/11/07 15:09:04;;;;;;;;;;;16.60;66.90;;;;;;5095034;28;20036;-38